• Join FlightAware (Why Join?)
  • Login
  • US Flag 
02:06AM EDT


 

Airport Tracker/Info


-or-


 

Live Flight TrackerFlight Track Log ✈ SWA2852 ✈ 29-Apr-2013 ✈ KOKC - KPHX

Flight Track Log - Related Links

Times and Time Zones

All times are in EDT time to prevent confusion due to time zone crossing. See the SWA2852 flight status page for this flight to view local times or setup timezone preferences in your user account.

Time Position Orientation Groundspeed Altitude Reporting Facility
EDT Latitude Longitude Course Direction KTS MPH feet Rate Location/Type
08:55PM 35.3539 -97.6147 211° Southwest 173 199 3,600  Level Fort Worth Center
08:56PM 35.3453 -97.6961 263° West 276 318 6,000 3,000 Climbing Fort Worth Center
08:58PM 35.3456 -97.9206 270° West 301 346 13,900 3,300 Climbing Albuquerque Center
08:58PM 35.3425 -97.9581 264° West 319 367 14,900 3,960 Climbing Fort Worth Center
08:59PM 35.3419 -98.0778 270° West 342 394 18,900 3,480 Climbing Fort Worth Center
09:00PM 35.3411 -98.2050 270° West 363 418 21,900 2,880 Climbing Fort Worth Center
09:01PM 35.3381 -98.3400 268° West 382 440 24,700 2,700 Climbing Fort Worth Center
09:02PM 35.3350 -98.4797 269° West 406 467 27,300 2,400 Climbing Fort Worth Center
09:03PM 35.3317 -98.6197 268° West 413 475 29,500 2,100 Climbing Fort Worth Center
09:04PM 35.3300 -98.7697 269° West 427 491 31,500 2,220 Climbing Fort Worth Center
09:05PM 35.3242 -98.9172 267° West 432 497 34,000 2,220 Climbing Fort Worth Center
09:06PM 35.3222 -99.0597 269° West 432 497 36,000 1,800 Climbing Fort Worth Center
09:07PM 35.3183 -99.2072 268° West 432 497 37,700 1,560 Climbing Fort Worth Center
09:08PM 35.3142 -99.3469 268° West 427 491 39,200 1,140 Climbing Fort Worth Center
09:09PM 35.3139 -99.4908 270° West 423 487 40,000 360 Climbing Albuquerque Center
09:10PM 35.3103 -99.6361 268° West 424 488 40,000  Level Albuquerque Center
09:11PM 35.3072 -99.7819 269° West 426 490 40,000  Level Albuquerque Center
09:12PM 35.3025 -99.9258 268° West 423 487 40,000  Level Albuquerque Center
09:13PM 35.2978 -100.0694 268° West 421 484 40,000  Level Albuquerque Center
09:14PM 35.2933 -100.2142 268° West 422 486 40,000  Level Albuquerque Center
09:15PM 35.2875 -100.3875 268° West 424 488 40,000  Level Albuquerque Center
09:16PM 35.2831 -100.5325 268° West 423 487 40,000  Level Albuquerque Center
09:17PM 35.2772 -100.6800 267° West 422 486 40,000  Level Albuquerque Center
09:18PM 35.2722 -100.8236 268° West 424 488 40,000  Level Albuquerque Center
09:19PM 35.2675 -100.9678 268° West 425 489 40,000  Level Albuquerque Center
09:20PM 35.2606 -101.1103 267° West 423 487 40,000  Level Albuquerque Center
09:21PM 35.2547 -101.2539 267° West 423 487 40,000  Level Albuquerque Center
09:23PM 35.2492 -101.3969 267° West 423 487 40,000  Level Albuquerque Center
09:24PM 35.2458 -101.5414 268° West 423 487 40,000  Level Albuquerque Center
09:25PM 35.2344 -101.7014 265° West 423 487 40,000  Level Albuquerque Center
09:26PM 35.2306 -101.8447 268° West 421 484 40,000  Level Albuquerque Center
09:27PM 35.2281 -101.9811 269° West 419 482 40,000  Level Albuquerque Center
09:28PM 35.2242 -102.1250 268° West 422 486 40,000  Level Albuquerque Center
09:29PM 35.2206 -102.2681 268° West 422 486 40,000  Level Albuquerque Center
09:30PM 35.2169 -102.4403 269° West 424 488 40,000  Level Albuquerque Center
09:31PM 35.2136 -102.5817 268° West 420 483 40,000  Level Albuquerque Center
09:32PM 35.2097 -102.7244 268° West 420 483 40,000  Level Albuquerque Center
09:33PM 35.2067 -102.8658 269° West 419 482 40,000  Level Albuquerque Center
09:34PM 35.2017 -103.0214 268° West 419 482 40,000  Level Albuquerque Center
09:35PM 35.1975 -103.1656 268° West 420 483 40,000  Level Albuquerque Center
09:36PM 35.1933 -103.3092 268° West 420 483 40,000  Level Albuquerque Center
09:37PM 35.1883 -103.4533 268° West 421 484 40,000  Level Albuquerque Center
09:38PM 35.1831 -103.5986 267° West 422 486 40,000  Level Albuquerque Center
09:39PM 35.1781 -103.7419 268° West 420 483 40,000  Level Albuquerque Center
09:40PM 35.1736 -103.8867 268° West 422 486 40,000  Level Albuquerque Center
09:41PM 35.1675 -104.0375 267° West 423 487 40,000  Level Albuquerque Center
09:42PM 35.1592 -104.1800 266° West 423 487 40,000  Level Albuquerque Center
09:43PM 35.1503 -104.3225 266° West 422 486 40,000  Level Albuquerque Center
09:44PM 35.1431 -104.4642 266° West 421 484 40,000  Level Albuquerque Center
09:45PM 35.1319 -104.6181 265° West 422 486 40,000  Level Albuquerque Center
09:46PM 35.1228 -104.7606 266° West 419 482 40,000  Level Albuquerque Center
09:47PM 35.1150 -104.9036 266° West 419 482 40,000  Level Albuquerque Center
09:48PM 35.1067 -105.0453 266° West 416 479 40,000  Level Albuquerque Center
09:49PM 35.0975 -105.1853 265° West 412 474 40,000  Level Albuquerque Center
09:50PM 35.0886 -105.3267 266° West 413 475 40,000  Level Albuquerque Center
09:51PM 35.0792 -105.4669 265° West 413 475 40,000  Level Albuquerque Center
09:52PM 35.0694 -105.6086 265° West 414 476 40,000  Level Albuquerque Center
09:53PM 35.0603 -105.7506 266° West 416 479 40,000  Level Albuquerque Center
09:54PM 35.0497 -105.9050 265° West 420 483 40,000  Level Albuquerque Center
09:55PM 35.0392 -106.0464 265° West 420 483 40,000  Level Albuquerque Center
09:56PM 35.0286 -106.1889 265° West 421 484 40,000 -540 Level Albuquerque Center
09:58PM 35.0069 -106.4778 265° West 428 493 38,500 -840 Descending Albuquerque Center
09:59PM 34.9944 -106.6458 265° West 443 510 37,500 -1,020 Descending Albuquerque Center
10:00PM 34.9808 -106.8161 264° West 450 518 36,400 -1,020 Descending Albuquerque Center
10:01PM 34.9719 -106.9581 266° West 442 509 35,500 -900 Descending Albuquerque Center
10:02PM 34.9600 -107.1036 264° West 451 519 34,600 -780 Descending Albuquerque Center
10:03PM 34.9472 -107.2483 264° West 458 527 34,000 -300 Descending Albuquerque Center
10:04PM 34.9328 -107.4275 264° West 448 516 34,000  Level Albuquerque Center
10:05PM 34.9200 -107.5750 264° West 441 507 34,000  Level Albuquerque Center
10:07PM 34.9078 -107.7219 264° West 437 503 34,000  Level Albuquerque Center
10:08PM 34.8961 -107.8658 264° West 438 504 34,000  Level Albuquerque Center
10:09PM 34.8819 -108.0306 264° West 437 503 34,000  Level Albuquerque Center
10:10PM 34.8697 -108.1733 264° West 439 505 34,000  Level Albuquerque Center
10:11PM 34.8575 -108.3142 264° West 439 505 34,000  Level Albuquerque Center
10:12PM 34.8422 -108.4817 264° West 442 509 34,000  Level Albuquerque Center
10:13PM 34.8286 -108.6250 263° West 444 511 34,000  Level Albuquerque Center
10:14PM 34.8136 -108.7917 264° West 443 510 34,000  Level Albuquerque Center
10:15PM 34.8006 -108.9328 264° West 440 506 34,000  Level Albuquerque Center
10:16PM 34.7867 -109.0761 263° West 441 507 34,000  Level Albuquerque Center
10:17PM 34.7717 -109.2422 264° West 441 507 34,000  Level Albuquerque Center
10:18PM 34.7569 -109.3839 263° West 441 507 34,000  Level Albuquerque Center
10:19PM 34.7394 -109.5450 263° West 434 499 34,000  Level Albuquerque Center
10:20PM 34.7256 -109.6856 263° West 434 499 34,000  Level Albuquerque Center
10:21PM 34.7119 -109.8272 263° West 438 504 34,000 -180 Level Albuquerque Center
10:22PM 34.6611 -109.9828 248° West 440 506 33,700 -720 Descending Albuquerque Center
10:23PM 34.6150 -110.1108 246° West 437 503 32,600 -1,020 Descending Albuquerque Center
10:24PM 34.5717 -110.2411 248° West 436 502 31,700 -1,020 Descending Albuquerque Center
10:25PM 34.5128 -110.3800 243° Southwest 420 483 30,600 -1,020 Descending Albuquerque Center
10:26PM 34.4744 -110.4947 248° West 420 483 29,700 -1,080 Descending Albuquerque Center
10:27PM 34.4147 -110.6497 245° Southwest 423 487 28,500 -1,440 Descending Albuquerque Center
10:28PM 34.3642 -110.7750 244° Southwest 419 482 26,800 -1,980 Descending Albuquerque Center
10:29PM 34.2908 -110.8764 229° Southwest 403 464 24,500 -2,220 Descending Albuquerque Center
10:30PM 34.2172 -110.9728 227° Southwest 394 453 22,300 -2,100 Descending Albuquerque Center
10:31PM 34.1464 -111.0642 227° Southwest 380 437 20,300 -2,040 Descending Albuquerque Center
10:32PM 34.0778 -111.1536 227° Southwest 369 425 18,200 -2,280 Descending Albuquerque Center
10:33PM 34.0100 -111.2397 226° Southwest 359 413 15,700 -2,220 Descending Albuquerque Center
10:34PM 33.9444 -111.3242 227° Southwest 347 399 13,700 -1,680 Descending Albuquerque Center
10:35PM 33.8803 -111.4069 227° Southwest 338 389 12,300 -1,320 Descending Albuquerque Center
10:36PM 33.8103 -111.4656 215° Southwest 305 351 11,000 -1,140 Descending Albuquerque Center
10:37PM 33.7453 -111.5222 216° Southwest 289 333 10,000 -1,140 Descending Albuquerque Center
10:38PM 33.6839 -111.5756 216° Southwest 273 314 8,800 -1,020 Descending Albuquerque Center
10:39PM 33.6178 -111.6319 215° Southwest 241 277 8,000 -900 Descending Albuquerque Center
10:40PM 33.5650 -111.6744 214° Southwest 228 262 7,000 -1,140 Descending Albuquerque Center
10:41PM 33.5133 -111.7181 215° Southwest 226 260 5,800 -1,080 Descending Albuquerque Center
10:43PM 33.4500 -111.8333 237° Southwest 194 223 3,900 -1,080 Descending Phoenix TRACON
10:44PM 33.4333 -111.8833 248° West 167 192 2,700 -960 Descending Phoenix TRACON
10:45PM 33.4333 -111.9333 270° West 125 144 2,000 -660 Descending Phoenix TRACON
10:46PM 33.4411 -111.9742 283° West 123 142 1,400 -420 Descending Albuquerque Center
10:47PM 33.4742 -112.0186 312° West 146 168 1,100 -300 Descending Albuquerque Center
10:49PM 33.4333 -112.0000 90° East  Level FlightAware Approximate